Time;durP1;ratioP1;P1;durP2;ratioP2;P2;SDS_P1;SDS_P2;PMS_P1;PMS_P2;Temp;Humidity;BMP_temperature;BMP_pressure;BME280_temperature;BME280_humidity;BME280_pressure;Samples;Min_cycle;Max_cycle;Signal;HPM_P1;HPM_P2
2021/06/30 00:00:11;;;;;;;62.93;13.30;;;;;;;;;;5033805;28;20104;-73
2021/06/30 00:02:37;;;;;;;59.97;13.53;;;;;;;;;;5033883;28;20462;-73
2021/06/30 00:05:03;;;;;;;54.63;12.97;;;;;;;;;;5034094;28;20097;-73
2021/06/30 00:07:29;;;;;;;62.27;15.47;;;;;;;;;;5032981;28;20122;-73
2021/06/30 00:09:54;;;;;;;68.17;14.77;;;;;;;;;;5034142;28;20025;-73
2021/06/30 00:12:19;;;;;;;55.43;14.33;;;;;;;;;;5032169;28;21017;-73
2021/06/30 00:14:45;;;;;;;55.77;13.50;;;;;;;;;;5033335;28;20104;-73
2021/06/30 00:17:11;;;;;;;55.43;13.67;;;;;;;;;;5033374;28;20026;-73
2021/06/30 00:19:36;;;;;;;48.30;13.50;;;;;;;;;;5032739;28;20041;-74
2021/06/30 00:22:03;;;;;;;54.33;13.10;;;;;;;;;;5033781;28;20017;-74
2021/06/30 00:24:28;;;;;;;47.03;13.27;;;;;;;;;;5033009;28;20025;-73
2021/06/30 00:26:53;;;;;;;54.77;13.57;;;;;;;;;;5033274;28;20385;-73
2021/06/30 00:29:18;;;;;;;48.07;13.33;;;;;;;;;;5032498;28;20963;-74
2021/06/30 00:31:44;;;;;;;47.60;12.17;;;;;;;;;;5033091;28;20458;-73
2021/06/30 00:34:09;;;;;;;46.43;12.07;;;;;;;;;;5033490;28;20048;-74
2021/06/30 00:36:36;;;;;;;52.57;12.80;;;;;;;;;;5033545;28;20397;-73
2021/06/30 00:39:03;;;;;;;51.07;12.23;;;;;;;;;;5032393;28;20032;-73
2021/06/30 00:41:28;;;;;;;52.77;12.73;;;;;;;;;;5032478;28;20022;-73
2021/06/30 00:43:54;;;;;;;46.90;12.33;;;;;;;;;;5033200;28;20024;-74
2021/06/30 00:46:26;;;;;;;50.40;11.60;;;;;;;;;;5033113;28;20108;-73
2021/06/30 00:48:51;;;;;;;47.03;12.27;;;;;;;;;;5026385;28;20017;-73
2021/06/30 00:51:17;;;;;;;43.97;11.47;;;;;;;;;;5032933;28;20024;-74
2021/06/30 00:53:42;;;;;;;40.97;11.07;;;;;;;;;;5032910;28;20025;-73
2021/06/30 00:56:07;;;;;;;49.30;11.83;;;;;;;;;;5033410;28;20071;-73
2021/06/30 00:58:33;;;;;;;51.87;11.90;;;;;;;;;;5031509;28;20438;-74
2021/06/30 01:00:58;;;;;;;48.90;12.07;;;;;;;;;;5034020;28;20516;-73
2021/06/30 01:03:24;;;;;;;41.57;11.87;;;;;;;;;;5053938;23;20057;-74
2021/06/30 01:05:49;;;;;;;47.03;12.43;;;;;;;;;;5031372;28;20033;-74
2021/06/30 01:08:14;;;;;;;38.20;11.00;;;;;;;;;;5030118;28;20104;-74
2021/06/30 01:10:40;;;;;;;45.30;11.43;;;;;;;;;;5031443;28;20108;-74
2021/06/30 01:13:05;;;;;;;45.10;11.30;;;;;;;;;;5030772;28;20037;-74
2021/06/30 01:15:30;;;;;;;45.60;11.57;;;;;;;;;;5030919;28;20013;-74
2021/06/30 01:17:56;;;;;;;39.90;11.33;;;;;;;;;;5032260;28;20025;-74
2021/06/30 01:20:21;;;;;;;40.77;12.33;;;;;;;;;;5032397;28;20109;-74
2021/06/30 01:23:02;;;;;;;46.43;11.10;;;;;;;;;;5031691;28;20057;-74
2021/06/30 01:25:28;;;;;;;43.00;11.68;;;;;;;;;;5026679;28;20045;-74
2021/06/30 01:27:53;;;;;;;39.97;10.77;;;;;;;;;;5034511;28;20045;-74
2021/06/30 01:30:22;;;;;;;52.33;11.10;;;;;;;;;;5036823;28;20048;-74
2021/06/30 01:32:47;;;;;;;49.80;11.60;;;;;;;;;;5036178;28;20507;-74
2021/06/30 01:35:20;;;;;;;49.40;12.40;;;;;;;;;;5036451;28;20026;-74
2021/06/30 01:37:46;;;;;;;52.67;10.67;;;;;;;;;;5036077;28;20018;-74
2021/06/30 01:40:12;;;;;;;47.03;11.10;;;;;;;;;;5035905;28;20025;-73
2021/06/30 01:42:42;;;;;;;46.07;11.43;;;;;;;;;;5035582;28;20362;-74
2021/06/30 01:45:07;;;;;;;48.33;10.80;;;;;;;;;;5036572;28;20091;-74
2021/06/30 01:47:33;;;;;;;53.63;11.23;;;;;;;;;;5032801;28;20033;-74
2021/06/30 01:49:58;;;;;;;61.37;10.93;;;;;;;;;;5035643;28;20025;-74
2021/06/30 01:52:28;;;;;;;52.67;11.07;;;;;;;;;;5035329;28;20078;-74
2021/06/30 01:54:54;;;;;;;62.73;11.87;;;;;;;;;;5035965;28;20047;-74
2021/06/30 01:57:19;;;;;;;67.97;10.80;;;;;;;;;;5035729;28;20096;-74
2021/06/30 01:59:45;;;;;;;65.67;12.60;;;;;;;;;;5035688;28;20028;-74
2021/06/30 02:02:10;;;;;;;76.10;11.93;;;;;;;;;;5035374;28;20067;-74
2021/06/30 02:04:35;;;;;;;64.80;11.63;;;;;;;;;;5035180;28;20053;-70
2021/06/30 02:07:01;;;;;;;81.93;11.43;;;;;;;;;;5035720;28;20075;-70
2021/06/30 02:09:26;;;;;;;73.80;11.97;;;;;;;;;;5035488;28;20541;-70
2021/06/30 02:11:51;;;;;;;69.90;11.63;;;;;;;;;;5035253;28;20335;-70
2021/06/30 02:14:16;;;;;;;60.20;11.77;;;;;;;;;;5035330;28;20342;-70
2021/06/30 02:16:42;;;;;;;62.93;11.93;;;;;;;;;;5035337;28;20470;-70
2021/06/30 02:19:07;;;;;;;68.90;12.47;;;;;;;;;;5035285;28;20105;-70
2021/06/30 02:21:34;;;;;;;63.73;12.00;;;;;;;;;;5034739;28;20067;-70
2021/06/30 02:24:00;;;;;;;68.83;12.67;;;;;;;;;;5032976;28;20048;-70
2021/06/30 02:26:26;;;;;;;55.63;11.70;;;;;;;;;;5034523;28;20033;-69
2021/06/30 02:28:52;;;;;;;61.23;11.83;;;;;;;;;;5034927;28;20389;-71
2021/06/30 02:31:17;;;;;;;56.50;11.57;;;;;;;;;;5034910;28;20033;-70
2021/06/30 02:33:46;;;;;;;63.97;11.00;;;;;;;;;;5034778;28;20036;-70
2021/06/30 02:36:11;;;;;;;62.60;11.90;;;;;;;;;;5034886;28;20030;-70
2021/06/30 02:38:37;;;;;;;66.93;12.07;;;;;;;;;;5033528;28;20017;-69
2021/06/30 02:41:02;;;;;;;62.67;12.73;;;;;;;;;;5034562;28;20083;-70
2021/06/30 02:43:27;;;;;;;53.97;12.20;;;;;;;;;;5034483;28;20448;-70
2021/06/30 02:45:53;;;;;;;57.43;11.00;;;;;;;;;;5034950;28;20033;-70
2021/06/30 02:48:18;;;;;;;57.90;12.10;;;;;;;;;;5034246;28;20358;-71
2021/06/30 02:50:43;;;;;;;47.07;10.50;;;;;;;;;;5034358;28;20036;-71
2021/06/30 02:53:09;;;;;;;51.67;11.20;;;;;;;;;;5034068;28;20063;-71
2021/06/30 02:55:34;;;;;;;54.60;11.03;;;;;;;;;;5033994;28;20023;-71
2021/06/30 02:57:59;;;;;;;54.83;12.00;;;;;;;;;;5034013;28;20099;-71
2021/06/30 03:00:25;;;;;;;51.37;11.93;;;;;;;;;;5034522;28;20028;-71
2021/06/30 03:02:51;;;;;;;49.00;11.90;;;;;;;;;;5034007;28;20048;-71
2021/06/30 03:05:17;;;;;;;43.53;10.87;;;;;;;;;;5034357;28;20884;-71
2021/06/30 03:07:42;;;;;;;40.63;11.37;;;;;;;;;;5033140;28;20029;-71
2021/06/30 03:10:08;;;;;;;46.03;12.07;;;;;;;;;;5034114;28;20040;-71
2021/06/30 03:12:35;;;;;;;47.53;11.03;;;;;;;;;;5033360;28;20029;-71
2021/06/30 03:15:00;;;;;;;52.60;11.97;;;;;;;;;;5034286;28;20025;-71
2021/06/30 03:17:25;;;;;;;40.83;10.20;;;;;;;;;;5034029;28;20134;-71
2021/06/30 03:19:51;;;;;;;44.67;11.17;;;;;;;;;;5033764;28;20036;-71
2021/06/30 03:22:19;;;;;;;44.80;11.57;;;;;;;;;;5033243;28;20051;-71
2021/06/30 03:24:45;;;;;;;41.50;11.07;;;;;;;;;;5034572;28;20026;-71
2021/06/30 03:27:10;;;;;;;45.50;10.90;;;;;;;;;;5033686;28;20025;-71
2021/06/30 03:29:35;;;;;;;39.93;10.93;;;;;;;;;;5034245;28;20033;-70
2021/06/30 03:32:01;;;;;;;45.73;11.10;;;;;;;;;;5033840;28;20029;-70
2021/06/30 03:34:26;;;;;;;41.80;10.47;;;;;;;;;;5033002;28;20059;-71
2021/06/30 03:36:52;;;;;;;46.63;11.43;;;;;;;;;;5033626;28;20026;-71
2021/06/30 03:39:17;;;;;;;42.63;10.70;;;;;;;;;;5033754;28;20026;-71
2021/06/30 03:41:42;;;;;;;37.90;10.57;;;;;;;;;;5033924;28;20432;-71
2021/06/30 03:44:08;;;;;;;41.20;10.20;;;;;;;;;;5033508;28;20764;-71
2021/06/30 03:46:33;;;;;;;40.53;11.70;;;;;;;;;;5033558;28;20041;-71
2021/06/30 03:48:59;;;;;;;35.97;10.10;;;;;;;;;;5032609;28;20116;-71
2021/06/30 03:51:24;;;;;;;38.97;10.93;;;;;;;;;;5032609;28;20083;-71
2021/06/30 03:53:49;;;;;;;42.50;11.50;;;;;;;;;;5033339;28;20484;-71
2021/06/30 03:56:15;;;;;;;40.40;11.57;;;;;;;;;;5030296;28;20025;-71
2021/06/30 03:58:40;;;;;;;42.23;10.63;;;;;;;;;;5033316;28;20033;-71
2021/06/30 04:01:05;;;;;;;35.53;10.27;;;;;;;;;;5032983;28;20079;-71
2021/06/30 04:03:31;;;;;;;39.60;10.67;;;;;;;;;;5032391;28;20061;-73
2021/06/30 04:05:57;;;;;;;44.93;11.23;;;;;;;;;;5033494;28;20056;-72
2021/06/30 04:08:23;;;;;;;35.37;9.90;;;;;;;;;;5032156;28;20049;-71
2021/06/30 04:10:48;;;;;;;39.37;10.30;;;;;;;;;;5032953;28;20072;-71
2021/06/30 04:13:16;;;;;;;40.23;10.40;;;;;;;;;;5032959;28;20031;-71
2021/06/30 04:15:42;;;;;;;36.07;9.67;;;;;;;;;;5032540;28;20024;-71
2021/06/30 04:18:07;;;;;;;35.53;10.23;;;;;;;;;;5033098;28;20022;-71
2021/06/30 04:20:33;;;;;;;33.43;9.63;;;;;;;;;;5032647;28;20025;-71
2021/06/30 04:22:58;;;;;;;36.53;10.27;;;;;;;;;;5033222;28;20041;-71
2021/06/30 04:25:24;;;;;;;30.57;8.97;;;;;;;;;;5032586;28;20026;-71
2021/06/30 04:27:49;;;;;;;41.93;9.93;;;;;;;;;;5032123;28;20033;-71
2021/06/30 04:30:14;;;;;;;33.03;9.53;;;;;;;;;;5032849;28;20017;-71
2021/06/30 04:32:40;;;;;;;33.10;10.33;;;;;;;;;;5032465;28;20033;-71
2021/06/30 04:35:06;;;;;;;33.77;9.20;;;;;;;;;;5032496;28;20017;-71
2021/06/30 04:37:31;;;;;;;33.97;10.00;;;;;;;;;;5031609;28;20032;-71
2021/06/30 04:39:57;;;;;;;29.13;8.83;;;;;;;;;;5032530;28;20025;-71
2021/06/30 04:42:22;;;;;;;33.10;9.67;;;;;;;;;;5031933;28;20024;-71
2021/06/30 04:44:48;;;;;;;34.63;10.07;;;;;;;;;;5031951;28;20026;-71
2021/06/30 04:47:13;;;;;;;31.87;9.03;;;;;;;;;;5032491;28;20029;-71
2021/06/30 04:49:38;;;;;;;32.97;10.30;;;;;;;;;;5032211;28;20060;-71
2021/06/30 04:52:04;;;;;;;27.93;9.40;;;;;;;;;;5032265;28;20108;-71
2021/06/30 04:54:29;;;;;;;30.33;9.40;;;;;;;;;;5032343;28;20108;-71
2021/06/30 04:56:54;;;;;;;27.20;8.67;;;;;;;;;;5031703;28;20079;-71
2021/06/30 04:59:21;;;;;;;28.13;9.53;;;;;;;;;;5031879;28;20075;-71
2021/06/30 05:01:46;;;;;;;35.10;9.97;;;;;;;;;;5031724;28;20507;-71
2021/06/30 05:04:12;;;;;;;26.97;8.30;;;;;;;;;;5031659;28;20045;-71
2021/06/30 05:06:37;;;;;;;26.17;8.77;;;;;;;;;;5031717;28;20024;-71
2021/06/30 05:09:03;;;;;;;30.53;9.47;;;;;;;;;;5028104;28;20029;-71
2021/06/30 05:11:30;;;;;;;29.50;9.00;;;;;;;;;;5032053;28;20025;-71
2021/06/30 05:13:56;;;;;;;25.40;8.60;;;;;;;;;;5032029;28;20029;-70
2021/06/30 05:16:22;;;;;;;27.00;8.53;;;;;;;;;;5031812;28;20349;-70
2021/06/30 05:18:48;;;;;;;31.00;8.33;;;;;;;;;;5031850;28;20021;-71
2021/06/30 05:21:13;;;;;;;22.07;8.10;;;;;;;;;;5032397;28;20044;-70
2021/06/30 05:23:38;;;;;;;27.27;9.10;;;;;;;;;;5031824;28;20374;-70
2021/06/30 05:26:03;;;;;;;20.03;6.83;;;;;;;;;;5031560;28;20025;-71
2021/06/30 05:28:29;;;;;;;23.47;7.80;;;;;;;;;;5031877;28;20033;-71
2021/06/30 05:30:57;;;;;;;25.03;7.67;;;;;;;;;;5032194;28;20021;-71
2021/06/30 05:33:23;;;;;;;21.40;6.77;;;;;;;;;;5031741;28;20363;-71
2021/06/30 05:35:50;;;;;;;18.83;6.47;;;;;;;;;;5031998;28;20097;-71
2021/06/30 05:38:15;;;;;;;16.87;5.77;;;;;;;;;;5030511;28;20026;-71
2021/06/30 05:40:41;;;;;;;18.87;5.67;;;;;;;;;;5031175;28;20026;-71
2021/06/30 05:43:09;;;;;;;17.20;5.77;;;;;;;;;;5030807;28;20028;-71
2021/06/30 05:45:35;;;;;;;17.60;5.73;;;;;;;;;;5031601;28;20013;-71
2021/06/30 05:48:00;;;;;;;17.87;5.50;;;;;;;;;;5030325;28;20785;-71
2021/06/30 05:50:25;;;;;;;17.23;6.10;;;;;;;;;;5031719;28;20523;-71
2021/06/30 05:52:51;;;;;;;17.33;5.77;;;;;;;;;;5031151;28;20025;-71
2021/06/30 05:55:16;;;;;;;18.67;6.20;;;;;;;;;;5031897;28;20025;-70
2021/06/30 05:57:41;;;;;;;20.13;5.83;;;;;;;;;;5031177;28;20037;-71
2021/06/30 06:00:09;;;;;;;16.97;5.50;;;;;;;;;;5032027;28;20461;-71
2021/06/30 06:02:34;;;;;;;14.70;5.37;;;;;;;;;;5031337;28;20346;-71
2021/06/30 06:05:00;;;;;;;15.40;5.30;;;;;;;;;;5031347;28;20045;-70
2021/06/30 06:07:25;;;;;;;14.20;5.23;;;;;;;;;;5031254;28;20219;-71
2021/06/30 06:09:50;;;;;;;11.60;4.67;;;;;;;;;;5032191;28;20021;-71
2021/06/30 06:12:16;;;;;;;12.00;4.50;;;;;;;;;;5031511;28;20013;-71
2021/06/30 06:14:41;;;;;;;10.93;4.13;;;;;;;;;;5035285;28;20025;-71
2021/06/30 06:17:08;;;;;;;10.17;4.07;;;;;;;;;;5035669;28;20495;-71
2021/06/30 06:19:34;;;;;;;11.97;4.00;;;;;;;;;;5034823;28;20022;-71
2021/06/30 06:21:59;;;;;;;12.43;4.40;;;;;;;;;;5034799;28;20040;-70
2021/06/30 06:24:24;;;;;;;9.37;4.07;;;;;;;;;;5034374;28;20040;-71
2021/06/30 06:26:51;;;;;;;10.53;4.73;;;;;;;;;;5034657;28;20056;-71
2021/06/30 06:29:17;;;;;;;10.33;3.83;;;;;;;;;;5034648;28;20369;-71
2021/06/30 06:31:42;;;;;;;10.90;4.50;;;;;;;;;;5035286;28;20025;-71
2021/06/30 06:34:07;;;;;;;10.43;3.90;;;;;;;;;;5034690;28;20224;-71
2021/06/30 06:36:34;;;;;;;10.43;3.90;;;;;;;;;;5035143;28;20045;-71
2021/06/30 06:39:00;;;;;;;10.27;4.03;;;;;;;;;;5033993;28;20091;-71
2021/06/30 06:41:25;;;;;;;11.13;4.17;;;;;;;;;;5034294;28;20044;-71
2021/06/30 06:43:51;;;;;;;11.33;3.87;;;;;;;;;;5035062;28;20025;-71
2021/06/30 06:46:16;;;;;;;9.40;3.77;;;;;;;;;;5034681;28;20029;-71
2021/06/30 06:48:42;;;;;;;10.30;3.63;;;;;;;;;;5034232;28;20036;-71
2021/06/30 06:51:07;;;;;;;9.73;3.40;;;;;;;;;;5034600;28;20112;-71
2021/06/30 06:53:33;;;;;;;8.87;3.33;;;;;;;;;;5034386;28;20323;-72
2021/06/30 06:56:01;;;;;;;10.27;3.37;;;;;;;;;;5034468;28;20097;-71
2021/06/30 06:58:26;;;;;;;8.17;3.07;;;;;;;;;;5034586;28;20017;-71
2021/06/30 07:00:51;;;;;;;8.77;3.87;;;;;;;;;;5014942;28;20458;-71
2021/06/30 07:03:17;;;;;;;9.17;3.43;;;;;;;;;;5034004;28;20033;-71
2021/06/30 07:05:42;;;;;;;9.93;3.77;;;;;;;;;;5034700;28;20040;-71
2021/06/30 07:08:07;;;;;;;8.33;3.17;;;;;;;;;;5034663;28;20049;-71
2021/06/30 07:10:33;;;;;;;11.50;3.63;;;;;;;;;;5033990;28;20030;-71
2021/06/30 07:12:58;;;;;;;7.63;3.10;;;;;;;;;;5034609;28;20029;-71
2021/06/30 07:15:23;;;;;;;11.30;3.53;;;;;;;;;;5034701;28;20026;-71
2021/06/30 07:17:48;;;;;;;10.17;3.20;;;;;;;;;;5034516;28;20021;-71
2021/06/30 07:20:14;;;;;;;9.97;3.90;;;;;;;;;;5034218;28;20033;-71
2021/06/30 07:22:39;;;;;;;9.20;3.83;;;;;;;;;;5034393;28;20027;-71
2021/06/30 07:25:05;;;;;;;9.63;3.80;;;;;;;;;;5034716;28;20513;-71
2021/06/30 07:27:30;;;;;;;8.63;3.37;;;;;;;;;;5034204;28;20458;-71
2021/06/30 07:29:56;;;;;;;9.53;3.83;;;;;;;;;;5034333;28;20465;-71
2021/06/30 07:32:21;;;;;;;10.63;4.60;;;;;;;;;;5033817;28;20025;-71
2021/06/30 07:34:46;;;;;;;9.50;3.57;;;;;;;;;;5034291;28;20029;-71
2021/06/30 07:37:11;;;;;;;10.70;4.10;;;;;;;;;;5034113;28;20028;-71
2021/06/30 07:39:37;;;;;;;9.23;3.73;;;;;;;;;;5033988;28;20037;-71
2021/06/30 07:42:02;;;;;;;11.47;3.80;;;;;;;;;;5033381;28;20021;-71
2021/06/30 07:44:28;;;;;;;9.60;4.00;;;;;;;;;;5033834;28;20026;-71
2021/06/30 07:46:54;;;;;;;13.00;4.33;;;;;;;;;;5033955;28;20033;-71
2021/06/30 07:49:19;;;;;;;10.80;4.20;;;;;;;;;;5033421;28;20057;-71
2021/06/30 07:51:44;;;;;;;11.97;4.23;;;;;;;;;;5033360;28;20594;-70
2021/06/30 07:54:10;;;;;;;10.87;4.07;;;;;;;;;;5032398;28;20024;-71
2021/06/30 07:56:36;;;;;;;10.63;4.07;;;;;;;;;;5033271;28;20022;-71
2021/06/30 07:59:05;;;;;;;12.53;4.20;;;;;;;;;;5032433;28;20103;-71
2021/06/30 08:01:31;;;;;;;10.20;4.03;;;;;;;;;;5020341;28;20005;-71
2021/06/30 08:03:56;;;;;;;10.20;4.33;;;;;;;;;;5032890;28;20052;-71
2021/06/30 08:06:22;;;;;;;12.07;4.97;;;;;;;;;;5033003;28;20029;-71
2021/06/30 08:08:47;;;;;;;12.23;5.03;;;;;;;;;;5032694;28;20040;-71
2021/06/30 08:11:12;;;;;;;10.40;4.63;;;;;;;;;;5033194;28;20049;-71
2021/06/30 08:13:38;;;;;;;12.60;4.95;;;;;;;;;;5033007;28;20029;-71
2021/06/30 08:16:03;;;;;;;9.17;4.00;;;;;;;;;;5033392;28;20025;-71
2021/06/30 08:18:29;;;;;;;11.17;4.50;;;;;;;;;;5032938;28;20106;-71
2021/06/30 08:20:54;;;;;;;10.93;4.87;;;;;;;;;;5033347;28;20080;-71
2021/06/30 08:23:19;;;;;;;10.87;4.50;;;;;;;;;;5032551;28;20025;-71
2021/06/30 08:25:46;;;;;;;13.60;4.80;;;;;;;;;;5032834;28;20430;-71
2021/06/30 08:28:11;;;;;;;10.30;4.37;;;;;;;;;;5031793;28;20458;-71
2021/06/30 08:30:37;;;;;;;10.00;4.27;;;;;;;;;;5032813;28;20034;-71
2021/06/30 08:33:02;;;;;;;10.35;4.53;;;;;;;;;;5032107;28;20053;-71
2021/06/30 08:35:27;;;;;;;11.38;4.32;;;;;;;;;;5032390;28;20013;-71
2021/06/30 08:37:54;;;;;;;10.85;4.20;;;;;;;;;;5032544;28;20022;-71
2021/06/30 08:40:20;;;;;;;8.55;3.95;;;;;;;;;;5033211;28;20449;-71
2021/06/30 08:42:45;;;;;;;10.43;3.88;;;;;;;;;;5032354;28;20106;-71
2021/06/30 08:45:11;;;;;;;12.70;4.57;;;;;;;;;;5032687;28;20112;-71
2021/06/30 08:47:38;;;;;;;10.38;4.30;;;;;;;;;;5032563;28;20106;-71
2021/06/30 08:50:05;;;;;;;10.10;4.53;;;;;;;;;;5032870;28;20017;-71
2021/06/30 08:52:32;;;;;;;8.73;3.83;;;;;;;;;;5031694;28;20477;-72
2021/06/30 08:54:58;;;;;;;9.32;4.63;;;;;;;;;;5032053;28;20030;-71
2021/06/30 08:57:23;;;;;;;9.38;4.13;;;;;;;;;;5032333;28;20025;-71
2021/06/30 08:59:49;;;;;;;10.77;4.40;;;;;;;;;;5032410;28;20075;-71
2021/06/30 09:02:14;;;;;;;10.65;4.10;;;;;;;;;;5032727;28;20032;-71
2021/06/30 09:04:42;;;;;;;9.73;4.18;;;;;;;;;;5031977;28;20057;-71
2021/06/30 09:07:07;;;;;;;11.43;4.80;;;;;;;;;;5032000;28;20017;-71
2021/06/30 09:09:40;;;;;;;10.20;4.43;;;;;;;;;;5032094;28;20141;-71
2021/06/30 09:12:06;;;;;;;9.38;4.75;;;;;;;;;;5031927;28;20098;-71
2021/06/30 09:14:36;;;;;;;11.73;5.23;;;;;;;;;;5031362;28;20036;-71
2021/06/30 09:17:20;;;;;;;11.40;4.40;;;;;;;;;;5031945;28;20029;-71
2021/06/30 09:20:05;;;;;;;10.55;4.55;;;;;;;;;;5024694;28;20026;-71
2021/06/30 09:22:41;;;;;;;9.27;3.92;;;;;;;;;;5032164;28;20493;-71
2021/06/30 09:25:07;;;;;;;10.35;4.22;;;;;;;;;;5032270;28;20026;-71
2021/06/30 09:27:37;;;;;;;10.10;4.63;;;;;;;;;;5032490;28;20033;-71
2021/06/30 09:30:06;;;;;;;9.75;4.10;;;;;;;;;;5032350;28;20021;-70
2021/06/30 09:32:35;;;;;;;11.35;4.75;;;;;;;;;;5031932;28;20035;-71
2021/06/30 09:35:17;;;;;;;9.40;4.30;;;;;;;;;;5031908;28;20022;-71
2021/06/30 09:37:43;;;;;;;10.05;4.65;;;;;;;;;;5031970;28;20091;-71
2021/06/30 09:40:09;;;;;;;11.30;4.68;;;;;;;;;;5032552;28;20377;-71
2021/06/30 09:42:35;;;;;;;8.52;4.35;;;;;;;;;;5031760;28;20088;-71
2021/06/30 09:45:19;;;;;;;9.68;4.38;;;;;;;;;;5032280;28;20033;-71
2021/06/30 09:47:48;;;;;;;9.00;4.28;;;;;;;;;;5030838;28;20016;-71
2021/06/30 09:50:14;;;;;;;9.18;4.68;;;;;;;;;;5034289;28;20373;-71
2021/06/30 09:52:41;;;;;;;11.35;4.60;;;;;;;;;;5035792;28;20030;-71
2021/06/30 09:55:22;;;;;;;9.27;4.30;;;;;;;;;;5035215;28;20122;-70
2021/06/30 09:57:47;;;;;;;9.85;4.53;;;;;;;;;;5030706;28;20029;-70
2021/06/30 10:00:13;;;;;;;10.20;4.20;;;;;;;;;;5035338;28;20353;-70
2021/06/30 10:02:39;;;;;;;11.00;4.23;;;;;;;;;;5035580;28;20018;-70
2021/06/30 10:05:07;;;;;;;10.30;4.40;;;;;;;;;;5034830;28;20048;-70
2021/06/30 10:07:32;;;;;;;9.30;4.37;;;;;;;;;;5035070;28;20094;-71
2021/06/30 10:10:03;;;;;;;9.53;4.50;;;;;;;;;;5035576;28;20017;-70
2021/06/30 10:12:29;;;;;;;9.57;3.87;;;;;;;;;;5035040;28;20092;-70
2021/06/30 10:14:55;;;;;;;9.00;4.27;;;;;;;;;;5035366;28;20018;-70
2021/06/30 10:17:20;;;;;;;9.77;4.63;;;;;;;;;;5034202;28;20036;-70
2021/06/30 10:19:47;;;;;;;9.47;4.50;;;;;;;;;;5034874;28;20021;-71
2021/06/30 10:22:12;;;;;;;12.03;4.87;;;;;;;;;;5035694;28;20033;-70
2021/06/30 10:24:39;;;;;;;10.73;4.80;;;;;;;;;;5034882;28;20025;-70
2021/06/30 10:27:05;;;;;;;10.13;4.50;;;;;;;;;;5034525;28;20025;-70
2021/06/30 10:29:31;;;;;;;10.83;4.63;;;;;;;;;;5035028;28;20026;-70
2021/06/30 10:32:07;;;;;;;11.63;4.73;;;;;;;;;;5035014;28;20397;-71
2021/06/30 10:34:36;;;;;;;11.53;4.80;;;;;;;;;;5034820;28;20022;-71
2021/06/30 10:37:01;;;;;;;12.47;5.67;;;;;;;;;;5034914;28;20025;-70
2021/06/30 10:39:56;;;;;;;12.47;4.90;;;;;;;;;;5035184;28;20029;-71
2021/06/30 10:42:36;;;;;;;11.97;5.40;;;;;;;;;;5017386;28;20059;-70
2021/06/30 10:45:18;;;;;;;9.63;4.53;;;;;;;;;;5034812;28;20026;-71
2021/06/30 10:48:03;;;;;;;9.50;4.63;;;;;;;;;;5031222;28;20025;-71
2021/06/30 10:50:31;;;;;;;10.70;4.90;;;;;;;;;;5034205;28;20382;-71
2021/06/30 10:53:22;;;;;;;11.43;5.17;;;;;;;;;;5034453;28;20159;-70
2021/06/30 10:55:54;;;;;;;10.75;5.15;;;;;;;;;;5024267;28;20052;-70
2021/06/30 10:58:20;;;;;;;;;;;;;;;;;;5034422;28;20049;-71
2021/06/30 11:00:49;;;;;;;10.43;5.20;;;;;;;;;;5034646;28;20377;-70
2021/06/30 11:04:01;;;;;;;10.73;5.00;;;;;;;;;;5034103;28;20101;-70
2021/06/30 11:06:28;;;;;;;10.15;4.93;;;;;;;;;;4953999;29;20027;-71
2021/06/30 11:09:02;;;;;;;10.37;4.93;;;;;;;;;;4952098;28;20054;-70
2021/06/30 11:11:47;;;;;;;10.00;4.63;;;;;;;;;;4958174;28;20566;-70
2021/06/30 11:14:14;;;;;;;10.35;5.22;;;;;;;;;;4948636;28;20035;-70
2021/06/30 11:16:49;;;;;;;11.52;5.22;;;;;;;;;;4953775;28;20512;-71
2021/06/30 11:19:34;;;;;;;9.80;4.90;;;;;;;;;;4950525;29;20049;-71
2021/06/30 11:22:05;;;;;;;9.93;5.15;;;;;;;;;;4943180;29;20042;-71
2021/06/30 11:24:49;;;;;;;10.55;5.30;;;;;;;;;;4953276;29;20632;-71
2021/06/30 11:27:36;;;;;;;9.38;4.47;;;;;;;;;;4947587;29;20031;-71
2021/06/30 11:30:04;;;;;;;11.95;5.43;;;;;;;;;;4952706;29;20045;-71
2021/06/30 11:32:47;;;;;;;8.57;4.40;;;;;;;;;;4953312;29;20170;-71
2021/06/30 11:35:23;;;;;;;10.82;5.03;;;;;;;;;;4953354;29;20027;-70
2021/06/30 11:38:13;;;;;;;9.88;4.70;;;;;;;;;;5007680;28;20543;-71
2021/06/30 11:40:49;;;;;;;10.35;5.20;;;;;;;;;;5033406;28;20079;-71
2021/06/30 11:43:17;;;;;;;10.82;5.18;;;;;;;;;;5033846;28;20034;-71
2021/06/30 11:45:43;;;;;;;9.43;5.10;;;;;;;;;;5024339;28;20037;-71
2021/06/30 11:48:10;;;;;;;9.57;5.13;;;;;;;;;;5033747;28;20592;-71
2021/06/30 11:50:49;;;;;;;9.85;4.90;;;;;;;;;;5033566;28;20048;-71
2021/06/30 11:53:15;;;;;;;10.32;4.55;;;;;;;;;;5033175;28;20036;-71
2021/06/30 11:55:41;;;;;;;10.52;4.90;;;;;;;;;;5032991;28;20021;-71
2021/06/30 11:58:07;;;;;;;10.02;4.95;;;;;;;;;;5033135;28;20025;-71
2021/06/30 12:00:34;;;;;;;10.55;4.70;;;;;;;;;;5032758;28;20474;-71
2021/06/30 12:03:00;;;;;;;11.75;4.95;;;;;;;;;;5032802;28;20075;-71
2021/06/30 12:05:27;;;;;;;10.80;4.65;;;;;;;;;;5033599;28;20041;-71
2021/06/30 12:07:56;;;;;;;9.73;4.53;;;;;;;;;;5032801;28;20516;-71
2021/06/30 12:10:26;;;;;;;11.38;4.68;;;;;;;;;;5031511;28;20028;-71
2021/06/30 12:12:51;;;;;;;11.93;4.63;;;;;;;;;;5032311;28;20100;-71
2021/06/30 12:15:18;;;;;;;10.97;5.23;;;;;;;;;;5032326;28;20375;-71
2021/06/30 12:17:47;;;;;;;11.47;5.20;;;;;;;;;;5032707;28;20027;-71
2021/06/30 12:20:13;;;;;;;11.73;5.10;;;;;;;;;;5025966;28;20053;-73
2021/06/30 12:22:38;;;;;;;11.40;5.30;;;;;;;;;;5032893;28;20025;-72
2021/06/30 12:25:12;;;;;;;12.03;5.47;;;;;;;;;;5033387;28;20087;-71
2021/06/30 12:27:44;;;;;;;12.37;5.17;;;;;;;;;;5032881;28;20021;-71
2021/06/30 12:30:14;;;;;;;11.80;5.30;;;;;;;;;;5032089;28;20025;-71
2021/06/30 12:32:43;;;;;;;12.70;5.70;;;;;;;;;;5032167;28;20061;-71
2021/06/30 12:35:10;;;;;;;14.87;6.00;;;;;;;;;;5032546;28;20049;-72
2021/06/30 12:37:35;;;;;;;10.87;5.30;;;;;;;;;;5032741;28;20022;-71
2021/06/30 12:40:03;;;;;;;11.50;5.65;;;;;;;;;;5032191;28;20026;-71
2021/06/30 12:43:01;;;;;;;14.23;5.45;;;;;;;;;;5028533;28;20056;-71
2021/06/30 12:45:59;;;;;;;10.60;4.15;;;;;;;;;;4987955;28;20096;-71
2021/06/30 12:48:25;;;;;;;10.23;4.10;;;;;;;;;;4987394;28;20026;-71
2021/06/30 12:50:52;;;;;;;10.77;4.03;;;;;;;;;;5031570;28;20035;-70
2021/06/30 12:53:28;;;;;;;9.97;3.83;;;;;;;;;;5032198;28;20025;-70
2021/06/30 12:56:24;;;;;;;7.80;3.43;;;;;;;;;;5030335;28;20080;-70
2021/06/30 12:58:54;;;;;;;7.90;3.37;;;;;;;;;;5015789;28;20422;-70
2021/06/30 13:01:29;;;;;;;9.93;3.63;;;;;;;;;;5031826;28;20021;-70
2021/06/30 13:03:55;;;;;;;8.17;3.57;;;;;;;;;;5031531;28;20096;-70
2021/06/30 13:06:24;;;;;;;9.17;3.53;;;;;;;;;;5031703;28;20037;-70
2021/06/30 13:09:06;;;;;;;10.47;4.07;;;;;;;;;;5031498;28;20039;-71
2021/06/30 13:11:39;;;;;;;8.45;3.55;;;;;;;;;;5032436;28;20585;-72
2021/06/30 13:14:09;;;;;;;9.87;3.43;;;;;;;;;;5034205;28;20033;-70
2021/06/30 13:16:46;;;;;;;7.57;3.00;;;;;;;;;;5032143;28;20487;-70
2021/06/30 13:19:11;;;;;;;8.80;3.57;;;;;;;;;;5032279;28;20079;-70
2021/06/30 13:21:46;;;;;;;6.15;2.60;;;;;;;;;;5032318;28;20541;-70
2021/06/30 13:24:16;;;;;;;6.68;2.90;;;;;;;;;;5036240;28;20059;-70
2021/06/30 13:35:52;;;;;;;7.90;3.10;;;;;;;;;;4936917;29;20050;-70
2021/06/30 13:38:22;;;;;;;7.78;3.13;;;;;;;;;;4935730;29;20028;-70
2021/06/30 13:40:48;;;;;;;6.18;2.85;;;;;;;;;;4935337;29;20127;-70
2021/06/30 13:43:14;;;;;;;8.13;3.08;;;;;;;;;;4935273;29;20461;-71
2021/06/30 13:45:49;;;;;;;6.57;2.72;;;;;;;;;;4936294;29;20054;-71
2021/06/30 13:48:15;;;;;;;6.50;2.67;;;;;;;;;;4935944;29;20118;-71
2021/06/30 13:50:43;;;;;;;9.35;2.67;;;;;;;;;;4936496;29;20059;-71
2021/06/30 13:53:08;;;;;;;6.75;2.95;;;;;;;;;;4937693;29;20114;-71
2021/06/30 13:55:34;;;;;;;7.13;3.00;;;;;;;;;;4938564;29;20106;-71
2021/06/30 13:58:00;;;;;;;8.63;3.30;;;;;;;;;;4934409;29;20035;-71
2021/06/30 14:00:26;;;;;;;7.03;3.30;;;;;;;;;;4934673;29;20039;-71
2021/06/30 14:02:51;;;;;;;9.20;3.67;;;;;;;;;;4935114;29;20506;-71
2021/06/30 14:05:17;;;;;;;8.07;3.58;;;;;;;;;;4938657;28;20071;-73
2021/06/30 14:07:42;;;;;;;8.43;3.97;;;;;;;;;;5020264;28;20389;-72
2021/06/30 14:10:08;;;;;;;8.50;3.83;;;;;;;;;;5035230;28;20496;-73
2021/06/30 14:12:33;;;;;;;8.05;3.63;;;;;;;;;;5035779;28;20397;-73
2021/06/30 14:14:59;;;;;;;9.77;3.53;;;;;;;;;;5034888;28;20017;-73
2021/06/30 14:17:24;;;;;;;9.85;4.03;;;;;;;;;;5035229;28;20014;-73
2021/06/30 14:19:50;;;;;;;9.75;4.47;;;;;;;;;;5035577;28;20032;-72
2021/06/30 14:22:19;;;;;;;10.00;4.30;;;;;;;;;;5035512;28;20029;-73
2021/06/30 14:24:44;;;;;;;12.02;4.25;;;;;;;;;;5034382;28;20033;-73
2021/06/30 14:27:10;;;;;;;10.73;4.63;;;;;;;;;;5035476;28;20022;-73
2021/06/30 14:29:35;;;;;;;10.13;3.88;;;;;;;;;;5035189;28;20021;-73
2021/06/30 14:32:00;;;;;;;12.95;4.85;;;;;;;;;;5035279;28;20035;-73
2021/06/30 14:34:26;;;;;;;11.15;4.28;;;;;;;;;;5033694;28;20060;-73
2021/06/30 14:36:51;;;;;;;11.02;4.72;;;;;;;;;;5035049;28;20021;-73
2021/06/30 14:39:16;;;;;;;12.13;5.30;;;;;;;;;;5034791;28;20052;-73